createdAt,value
2019-03-21T00:01:24.899Z,5.60
2019-03-21T00:03:54.930Z,4.23
2019-03-21T00:06:22.909Z,5.27
2019-03-21T00:08:51.373Z,5.53
2019-03-21T00:11:57.043Z,5.70
2019-03-21T00:14:32.063Z,3.20
2019-03-21T00:16:59.867Z,2.60
2019-03-21T00:19:29.880Z,2.40
2019-03-21T00:21:58.883Z,3.10
2019-03-21T00:24:26.899Z,3.13
2019-03-21T00:26:55.871Z,2.90
2019-03-21T00:29:23.406Z,3.73
2019-03-21T00:31:51.122Z,1.90
2019-03-21T00:34:20.272Z,2.00
2019-03-21T00:36:48.519Z,5.77
2019-03-21T00:39:16.217Z,1.80
2019-03-21T00:41:44.155Z,3.70
2019-03-21T00:44:18.080Z,3.33
2019-03-21T00:46:41.475Z,3.27
2019-03-21T00:49:09.955Z,2.30
2019-03-21T00:51:38.127Z,4.10
2019-03-21T00:54:05.869Z,5.97
2019-03-21T00:56:34.223Z,6.07
2019-03-21T00:59:01.835Z,9.30
2019-03-21T01:01:30.124Z,28.37
2019-03-21T01:03:59.893Z,6.90
2019-03-21T01:06:27.347Z,4.93
2019-03-21T01:08:55.379Z,4.83
2019-03-21T01:11:23.079Z,2.40
2019-03-21T01:13:51.456Z,2.77
2019-03-21T01:16:20.101Z,5.20
2019-03-21T01:18:48.356Z,1.87
2019-03-21T01:21:16.026Z,3.10
2019-03-21T01:23:43.572Z,1.83
2019-03-21T01:26:13.534Z,1.67
2019-03-21T01:28:41.420Z,7.50
2019-03-21T01:31:09.403Z,2.57
2019-03-21T01:33:37.222Z,1.33
2019-03-21T01:36:05.164Z,1.53
2019-03-21T01:38:33.282Z,4.90
2019-03-21T01:41:01.059Z,5.87
2019-03-21T01:43:28.787Z,1.70
2019-03-21T01:45:56.352Z,5.17
2019-03-21T01:48:24.607Z,1.60
2019-03-21T01:50:52.379Z,1.90
2019-03-21T01:53:20.123Z,2.27
2019-03-21T01:55:48.105Z,3.43
2019-03-21T01:58:16.063Z,2.43
2019-03-21T02:00:44.939Z,4.00
2019-03-21T02:03:12.459Z,7.73
2019-03-21T02:05:41.479Z,15.70
2019-03-21T02:08:10.553Z,11.83
2019-03-21T02:10:38.195Z,7.77
2019-03-21T02:13:05.891Z,7.20
2019-03-21T02:15:33.803Z,5.00
2019-03-21T02:18:02.364Z,16.83
2019-03-21T02:20:30.110Z,30.93
2019-03-21T02:22:58.631Z,5.93
2019-03-21T02:25:27.739Z,2.37
2019-03-21T02:27:56.328Z,4.63
2019-03-21T02:30:26.784Z,2.77
2019-03-21T02:32:57.651Z,3.80
2019-03-21T02:35:25.173Z,3.40
2019-03-21T02:37:53.047Z,2.13
2019-03-21T02:40:21.689Z,2.73
2019-03-21T02:42:49.380Z,2.80
2019-03-21T02:45:19.059Z,2.10
2019-03-21T02:47:47.364Z,3.60
2019-03-21T02:50:18.733Z,1.63
2019-03-21T02:52:48.341Z,2.30
2019-03-21T02:55:16.052Z,3.23
2019-03-21T02:57:44.175Z,4.57
2019-03-21T03:00:15.335Z,3.93
2019-03-21T03:02:43.172Z,5.00
2019-03-21T03:05:14.713Z,2.30
2019-03-21T03:07:42.454Z,3.30
2019-03-21T03:10:13.428Z,2.70
2019-03-21T03:12:43.084Z,2.90
2019-03-21T03:15:22.622Z,3.53
2019-03-21T03:17:42.785Z,2.90
2019-03-21T03:20:13.407Z,4.33
2019-03-21T03:22:41.038Z,5.00
2019-03-21T03:25:09.168Z,2.77
2019-03-21T03:27:37.553Z,2.67
2019-03-21T03:30:06.877Z,3.73
2019-03-21T03:32:34.685Z,4.13
2019-03-21T03:35:02.875Z,5.53
2019-03-21T03:37:31.568Z,6.40
2019-03-21T03:40:00.383Z,4.47
2019-03-21T03:42:28.399Z,3.57
2019-03-21T03:44:55.928Z,3.77
2019-03-21T03:47:23.973Z,5.77
2019-03-21T03:49:53.112Z,3.10
2019-03-21T03:52:21.201Z,5.70
2019-03-21T03:54:48.991Z,8.80
2019-03-21T03:57:16.717Z,4.27
2019-03-21T03:59:46.259Z,6.90
2019-03-21T04:02:14.008Z,2.97
2019-03-21T04:04:43.465Z,3.27
2019-03-21T04:07:11.344Z,5.47
2019-03-21T04:09:39.500Z,3.20
2019-03-21T04:12:07.536Z,2.53
2019-03-21T04:14:35.071Z,4.30
2019-03-21T04:17:02.947Z,3.83
2019-03-21T04:19:31.015Z,3.00
2019-03-21T04:22:00.449Z,3.63
2019-03-21T04:24:28.985Z,2.83
2019-03-21T04:26:57.411Z,5.13
2019-03-21T04:29:25.581Z,5.40
2019-03-21T04:31:53.396Z,4.70
2019-03-21T04:34:21.171Z,6.13
2019-03-21T04:36:48.833Z,3.97
2019-03-21T04:39:19.070Z,6.20
2019-03-21T04:41:46.760Z,3.50
2019-03-21T04:44:14.379Z,5.60
2019-03-21T04:46:42.760Z,3.17
2019-03-21T04:49:10.535Z,5.90
2019-03-21T04:51:38.405Z,4.47
2019-03-21T04:54:06.345Z,4.60
2019-03-21T04:56:36.516Z,8.83
2019-03-21T04:59:06.055Z,3.63
2019-03-21T05:01:33.472Z,5.20
2019-03-21T05:04:02.346Z,3.30
2019-03-21T05:06:32.754Z,6.77
2019-03-21T05:09:00.125Z,3.00
2019-03-21T05:11:28.140Z,9.93
2019-03-21T05:13:56.443Z,7.37
2019-03-21T05:16:24.379Z,3.87
2019-03-21T05:18:53.411Z,6.60
2019-03-21T05:21:21.368Z,5.83
2019-03-21T05:23:48.783Z,3.93
2019-03-21T05:26:16.320Z,3.37
2019-03-21T05:28:43.835Z,3.90
2019-03-21T05:31:14.979Z,3.63
2019-03-21T05:33:42.949Z,3.73
2019-03-21T05:36:10.972Z,5.30
2019-03-21T05:38:39.523Z,7.40
2019-03-21T05:41:07.308Z,15.30
2019-03-21T05:43:39.433Z,32.63
2019-03-21T05:46:06.946Z,32.13
2019-03-21T05:48:34.553Z,42.37
2019-03-21T05:51:02.834Z,63.13
2019-03-21T05:53:30.495Z,32.13
2019-03-21T05:55:59.920Z,8.97
2019-03-21T05:58:27.559Z,14.07
2019-03-21T06:00:56.867Z,19.10
2019-03-21T06:03:27.899Z,41.27
2019-03-21T06:05:59.452Z,62.57
2019-03-21T06:08:30.320Z,44.03
2019-03-21T06:10:59.263Z,32.27
2019-03-21T06:13:26.827Z,28.63
2019-03-21T06:15:54.270Z,17.73
2019-03-21T06:19:07.535Z,18.20
2019-03-21T06:22:05.539Z,13.53
2019-03-21T06:25:04.636Z,7.73
2019-03-21T06:27:32.371Z,12.50
2019-03-21T06:30:00.428Z,10.40
2019-03-21T06:32:28.307Z,10.40
2019-03-21T06:34:57.303Z,9.73
2019-03-21T06:37:28.327Z,10.63
2019-03-21T06:39:55.572Z,8.20
2019-03-21T06:42:25.152Z,6.80
2019-03-21T06:44:52.892Z,6.10
2019-03-21T06:47:20.559Z,5.00
2019-03-21T06:49:48.716Z,6.30
2019-03-21T06:52:16.644Z,7.30
2019-03-21T06:54:44.944Z,6.70
2019-03-21T06:57:12.359Z,4.27
2019-03-21T06:59:41.120Z,5.70
2019-03-21T07:02:10.560Z,9.10
2019-03-21T07:04:40.080Z,11.27
2019-03-21T07:07:08.743Z,8.67
2019-03-21T07:09:36.359Z,8.73
2019-03-21T07:12:05.814Z,11.43
2019-03-21T07:14:33.871Z,6.00
2019-03-21T07:17:01.425Z,7.00
2019-03-21T07:19:30.096Z,8.10
2019-03-21T07:21:59.837Z,7.70
2019-03-21T07:24:29.116Z,8.40
2019-03-21T07:26:57.002Z,5.87
2019-03-21T07:29:24.631Z,9.77
2019-03-21T07:31:52.315Z,10.33
2019-03-21T07:34:19.939Z,10.97
2019-03-21T07:36:48.956Z,6.63
2019-03-21T07:39:17.335Z,7.67
2019-03-21T07:41:44.883Z,9.23
2019-03-21T07:44:14.603Z,7.90
2019-03-21T07:46:43.365Z,9.07
2019-03-21T07:49:13.302Z,10.77
2019-03-21T07:51:44.971Z,13.07
2019-03-21T07:54:12.423Z,6.90
2019-03-21T07:56:39.948Z,10.20
2019-03-21T07:59:07.763Z,6.83
2019-03-21T08:01:35.649Z,15.70
2019-03-21T08:04:03.564Z,8.20
2019-03-21T08:06:31.844Z,7.37
2019-03-21T08:08:59.544Z,6.37
2019-03-21T08:11:27.307Z,15.17
2019-03-21T08:13:55.527Z,14.37
2019-03-21T08:16:23.692Z,5.87
2019-03-21T08:18:51.292Z,9.47
2019-03-21T08:21:19.949Z,7.03
2019-03-21T08:23:47.888Z,6.23
2019-03-21T08:26:15.991Z,8.17
2019-03-21T08:28:44.743Z,8.30
2019-03-21T08:31:16.231Z,10.00
2019-03-21T08:33:44.975Z,14.90
2019-03-21T08:36:13.469Z,6.90
2019-03-21T08:38:42.616Z,13.10
2019-03-21T08:41:10.579Z,6.77
2019-03-21T08:43:39.999Z,6.77
2019-03-21T08:46:07.476Z,10.70
2019-03-21T08:48:36.119Z,8.13
2019-03-21T08:51:08.645Z,8.00
2019-03-21T08:53:35.759Z,9.50
2019-03-21T08:56:04.765Z,6.70
2019-03-21T08:58:33.503Z,7.83
2019-03-21T09:01:02.063Z,7.30
2019-03-21T09:03:29.747Z,9.43
2019-03-21T09:05:57.449Z,11.30
2019-03-21T09:08:26.028Z,10.60
2019-03-21T09:10:53.805Z,8.10
2019-03-21T09:13:22.044Z,12.93
2019-03-21T09:15:50.714Z,5.80
2019-03-21T09:18:19.107Z,13.80
2019-03-21T09:20:46.760Z,6.40
2019-03-21T09:23:14.781Z,7.63
2019-03-21T09:25:43.359Z,6.43
2019-03-21T09:28:10.912Z,8.40
2019-03-21T09:30:39.691Z,8.10
2019-03-21T09:33:07.257Z,13.57
2019-03-21T09:35:35.943Z,6.90
2019-03-21T09:38:03.767Z,4.87
2019-03-21T09:40:32.096Z,5.73
2019-03-21T09:43:03.047Z,7.23
2019-03-21T09:45:30.692Z,4.27
2019-03-21T09:47:59.933Z,6.87
2019-03-21T09:50:28.772Z,6.33
2019-03-21T09:52:56.383Z,8.47
2019-03-21T09:55:25.464Z,5.23
2019-03-21T09:57:53.299Z,9.23
2019-03-21T10:00:38.847Z,10.50
2019-03-21T10:03:06.724Z,7.00
2019-03-21T10:05:36.275Z,5.50
2019-03-21T10:08:06.011Z,5.87
2019-03-21T10:10:34.233Z,5.70
2019-03-21T10:13:04.765Z,4.87
2019-03-21T10:15:33.465Z,3.90
2019-03-21T10:18:03.161Z,5.63
2019-03-21T10:20:31.254Z,4.63
2019-03-21T10:22:59.219Z,7.07
2019-03-21T10:25:27.024Z,3.77
2019-03-21T10:27:55.792Z,13.10
2019-03-21T10:30:35.127Z,6.23
2019-03-21T10:33:04.506Z,5.60
2019-03-21T10:35:32.750Z,5.93
2019-03-21T10:38:00.641Z,6.40
2019-03-21T10:40:28.488Z,4.37
2019-03-21T10:42:56.137Z,7.50
2019-03-21T10:45:24.911Z,6.30
2019-03-21T10:47:52.824Z,4.13
2019-03-21T10:50:28.840Z,4.90
2019-03-21T10:52:57.014Z,7.40
2019-03-21T10:55:25.703Z,7.50
2019-03-21T10:57:53.967Z,7.10
2019-03-21T11:00:22.786Z,5.13
2019-03-21T11:02:50.487Z,7.20
2019-03-21T11:05:18.529Z,8.43
2019-03-21T11:07:46.332Z,5.37
2019-03-21T11:10:15.736Z,4.27
2019-03-21T11:12:44.880Z,3.50
2019-03-21T11:15:13.092Z,7.90
2019-03-21T11:17:41.135Z,8.90
2019-03-21T11:20:09.174Z,11.93
2019-03-21T11:22:37.271Z,7.23
2019-03-21T11:25:05.147Z,6.97
2019-03-21T11:27:33.089Z,9.43
2019-03-21T11:30:01.139Z,7.13
2019-03-21T11:32:28.775Z,6.33
2019-03-21T11:34:56.520Z,7.93
2019-03-21T11:37:24.007Z,9.47
2019-03-21T11:39:51.603Z,7.33
2019-03-21T11:42:20.983Z,9.40
2019-03-21T11:44:48.509Z,27.10
2019-03-21T11:47:17.280Z,10.97
2019-03-21T11:49:46.364Z,7.33
2019-03-21T11:52:18.514Z,10.33
2019-03-21T11:54:44.316Z,10.40
2019-03-21T11:57:12.348Z,3.23
2019-03-21T11:59:51.167Z,6.77
2019-03-21T12:02:09.830Z,4.13
2019-03-21T12:04:37.383Z,2.80
2019-03-21T12:07:05.944Z,6.40
2019-03-21T12:09:33.767Z,2.77
2019-03-21T12:12:01.928Z,3.43
2019-03-21T12:14:29.434Z,3.10
2019-03-21T12:16:56.912Z,7.37
2019-03-21T12:19:24.637Z,4.57
2019-03-21T12:21:52.292Z,5.03
2019-03-21T12:24:19.708Z,4.40
2019-03-21T12:26:47.101Z,6.80
2019-03-21T12:29:16.292Z,3.77
2019-03-21T12:31:43.827Z,13.10
2019-03-21T12:34:13.164Z,4.10
2019-03-21T12:36:40.983Z,3.90
2019-03-21T12:39:09.038Z,7.93
2019-03-21T12:41:36.620Z,5.63
2019-03-21T12:44:04.467Z,6.00
2019-03-21T12:46:33.679Z,5.40
2019-03-21T12:49:01.876Z,5.40
2019-03-21T12:51:31.320Z,5.60
2019-03-21T12:53:59.459Z,4.10
2019-03-21T12:56:26.839Z,4.83
2019-03-21T12:58:56.416Z,5.00
2019-03-21T13:01:24.427Z,5.53
2019-03-21T13:03:51.996Z,5.77
2019-03-21T13:06:19.721Z,4.87
2019-03-21T13:08:47.788Z,6.23
2019-03-21T13:11:15.922Z,5.37
2019-03-21T13:13:43.554Z,5.07
2019-03-21T13:16:11.472Z,3.97
2019-03-21T13:18:40.473Z,6.60
2019-03-21T13:21:08.951Z,6.47
2019-03-21T13:23:37.420Z,22.30
2019-03-21T13:26:05.028Z,8.00
2019-03-21T13:28:32.427Z,4.23
2019-03-21T13:31:00.272Z,7.53
2019-03-21T13:33:28.819Z,5.73
2019-03-21T13:35:58.079Z,5.70
2019-03-21T13:38:26.359Z,10.50
2019-03-21T13:40:54.543Z,9.37
2019-03-21T13:43:21.984Z,4.70
2019-03-21T13:45:50.091Z,6.87
2019-03-21T13:48:17.939Z,6.37
2019-03-21T13:50:47.036Z,3.20
2019-03-21T13:53:18.842Z,5.33
2019-03-21T13:55:44.580Z,4.83
2019-03-21T13:58:12.007Z,10.97
2019-03-21T14:00:41.178Z,5.00
2019-03-21T14:03:09.927Z,6.20
2019-03-21T14:05:39.504Z,6.90
2019-03-21T14:08:07.048Z,5.90
2019-03-21T14:10:35.984Z,7.07
2019-03-21T14:13:04.451Z,4.50
2019-03-21T14:15:32.132Z,3.53
2019-03-21T14:18:01.475Z,6.07
2019-03-21T14:20:29.004Z,5.07
2019-03-21T14:22:58.143Z,5.37
2019-03-21T14:25:26.557Z,5.10
2019-03-21T14:27:54.635Z,5.27
2019-03-21T14:30:22.323Z,3.67
2019-03-21T14:32:50.199Z,5.67
2019-03-21T14:35:18.120Z,5.47
2019-03-21T14:37:45.779Z,6.27
2019-03-21T14:40:13.641Z,5.33
2019-03-21T14:42:42.185Z,4.30
2019-03-21T14:45:11.725Z,5.90
2019-03-21T14:47:40.411Z,4.50
2019-03-21T14:50:09.966Z,4.17
2019-03-21T14:52:38.883Z,15.67
2019-03-21T14:55:07.539Z,4.93
2019-03-21T14:57:35.290Z,7.80
2019-03-21T15:00:04.303Z,5.27
2019-03-21T15:02:31.691Z,2.13
2019-03-21T15:04:59.068Z,4.03
2019-03-21T15:07:27.807Z,3.30
2019-03-21T15:09:55.327Z,6.70
2019-03-21T15:12:24.177Z,5.50
2019-03-21T15:14:52.013Z,2.87
2019-03-21T15:17:19.672Z,5.13
2019-03-21T15:19:47.736Z,4.57
2019-03-21T15:22:16.661Z,4.43
2019-03-21T15:24:44.290Z,4.10
2019-03-21T15:27:13.115Z,4.60
2019-03-21T15:29:42.413Z,5.00
2019-03-21T15:32:10.487Z,6.20
2019-03-21T15:34:39.019Z,3.20
2019-03-21T15:37:07.183Z,5.97
2019-03-21T15:39:36.907Z,2.87
2019-03-21T15:42:04.563Z,6.10
2019-03-21T15:44:34.133Z,4.93
2019-03-21T15:47:01.767Z,4.07
2019-03-21T15:49:29.490Z,3.60
2019-03-21T15:51:57.783Z,6.00
2019-03-21T15:54:25.284Z,2.77
2019-03-21T15:56:52.764Z,4.70
2019-03-21T15:59:21.578Z,4.47
2019-03-21T16:01:49.196Z,6.50
2019-03-21T16:04:16.868Z,4.40
2019-03-21T16:06:46.191Z,3.90
2019-03-21T16:09:14.320Z,5.87
2019-03-21T16:11:41.887Z,3.40
2019-03-21T16:14:09.444Z,6.53
2019-03-21T16:16:37.563Z,3.33
2019-03-21T16:19:05.775Z,3.23
2019-03-21T16:21:33.162Z,3.53
2019-03-21T16:24:05.576Z,11.23
2019-03-21T16:26:31.679Z,29.53
2019-03-21T16:28:59.541Z,23.67
2019-03-21T16:31:27.348Z,4.97
2019-03-21T16:33:56.559Z,4.60
2019-03-21T16:36:24.681Z,5.33
2019-03-21T16:38:52.379Z,5.10
2019-03-21T16:41:21.644Z,2.77
2019-03-21T16:43:50.872Z,5.20
2019-03-21T16:46:18.600Z,5.93
2019-03-21T16:48:47.764Z,7.50
2019-03-21T16:51:15.647Z,3.70
2019-03-21T16:53:44.311Z,4.63
2019-03-21T16:56:12.965Z,5.77
2019-03-21T16:58:41.138Z,6.40
2019-03-21T17:01:09.888Z,5.50
2019-03-21T17:03:37.867Z,8.93
2019-03-21T17:06:05.540Z,3.70
2019-03-21T17:08:34.467Z,8.50
2019-03-21T17:11:03.071Z,7.83
2019-03-21T17:13:30.865Z,8.00
2019-03-21T17:16:00.580Z,4.27
2019-03-21T17:18:28.524Z,4.30
2019-03-21T17:20:57.056Z,3.80
2019-03-21T17:23:26.089Z,6.10
2019-03-21T17:25:53.607Z,12.13
2019-03-21T17:28:21.120Z,14.53
2019-03-21T17:30:49.984Z,4.67
2019-03-21T17:33:18.321Z,7.70
2019-03-21T17:35:46.175Z,5.90
2019-03-21T17:38:13.953Z,4.43
2019-03-21T17:40:42.169Z,9.80
2019-03-21T17:43:10.708Z,6.80
2019-03-21T17:45:38.495Z,6.00
2019-03-21T17:48:07.051Z,19.40
2019-03-21T17:50:34.812Z,6.53
2019-03-21T17:53:02.635Z,11.17
2019-03-21T17:55:30.784Z,6.43
2019-03-21T17:57:58.913Z,4.13
2019-03-21T18:00:27.927Z,4.67
2019-03-21T18:02:56.195Z,3.10
2019-03-21T18:05:23.923Z,2.77
2019-03-21T18:07:51.896Z,2.20
2019-03-21T18:10:28.130Z,3.03
2019-03-21T18:12:57.343Z,2.90
2019-03-21T18:15:24.999Z,3.53
2019-03-21T18:17:53.087Z,3.00
2019-03-21T18:20:21.471Z,5.83
2019-03-21T18:22:49.172Z,2.57
2019-03-21T18:25:16.960Z,2.30
2019-03-21T18:27:46.835Z,4.67
2019-03-21T18:30:14.820Z,5.43
2019-03-21T18:32:42.991Z,6.40
2019-03-21T18:35:12.236Z,7.37
2019-03-21T18:37:39.885Z,5.07
2019-03-21T18:40:11.339Z,2.37
2019-03-21T18:42:39.254Z,6.50
2019-03-21T18:45:07.611Z,3.73
2019-03-21T18:47:36.026Z,2.47
2019-03-21T18:50:05.206Z,10.10
2019-03-21T18:52:33.243Z,7.10
2019-03-21T18:55:06.628Z,6.23
2019-03-21T18:57:32.715Z,5.40
2019-03-21T19:00:01.254Z,3.93
2019-03-21T19:02:28.948Z,7.20
2019-03-21T19:04:56.723Z,7.43
2019-03-21T19:07:24.928Z,15.70
2019-03-21T19:09:52.816Z,14.50
2019-03-21T19:12:21.983Z,19.77
2019-03-21T19:14:49.487Z,18.87
2019-03-21T19:17:16.915Z,13.40
2019-03-21T19:19:44.712Z,11.10
2019-03-21T19:22:12.451Z,8.30
2019-03-21T19:24:40.073Z,6.53
2019-03-21T19:27:08.904Z,6.97
2019-03-21T19:29:36.887Z,4.17
2019-03-21T19:32:04.467Z,8.80
2019-03-21T19:34:32.151Z,5.10
2019-03-21T19:37:01.820Z,3.77
2019-03-21T19:39:29.213Z,31.93
2019-03-21T19:41:57.099Z,32.20
2019-03-21T19:44:24.836Z,6.67
2019-03-21T19:46:53.096Z,5.97
2019-03-21T19:49:20.775Z,4.93
2019-03-21T19:51:49.771Z,3.80
2019-03-21T19:54:17.411Z,3.70
2019-03-21T19:56:44.932Z,2.23
2019-03-21T19:59:13.061Z,3.33
2019-03-21T20:01:41.684Z,4.17
2019-03-21T20:04:09.492Z,2.80
2019-03-21T20:06:37.144Z,5.57
2019-03-21T20:09:06.477Z,5.13
2019-03-21T20:11:34.801Z,3.27
2019-03-21T20:14:03.989Z,5.97
2019-03-21T20:16:32.420Z,5.60
2019-03-21T20:19:00.371Z,5.30
2019-03-21T20:21:28.652Z,9.00
2019-03-21T20:23:57.017Z,4.17
2019-03-21T20:26:25.107Z,9.00
2019-03-21T20:28:53.196Z,4.93
2019-03-21T20:31:20.717Z,5.10
2019-03-21T20:33:48.671Z,3.70
2019-03-21T20:36:16.164Z,3.47
2019-03-21T20:38:43.904Z,3.20
2019-03-21T20:41:11.843Z,2.70
2019-03-21T20:43:39.527Z,4.67
2019-03-21T20:46:07.692Z,2.90
2019-03-21T20:48:34.571Z,3.67
2019-03-21T20:51:02.088Z,6.60
2019-03-21T20:53:30.400Z,2.07
2019-03-21T20:55:58.627Z,3.83
2019-03-21T20:58:26.846Z,4.70
2019-03-21T21:00:54.343Z,3.93
2019-03-21T21:03:22.851Z,3.53
2019-03-21T21:05:50.274Z,3.30
2019-03-21T21:08:17.907Z,4.80
2019-03-21T21:10:45.464Z,3.47
2019-03-21T21:13:14.072Z,5.27
2019-03-21T21:15:42.116Z,3.10
2019-03-21T21:18:09.844Z,4.30
2019-03-21T21:20:38.952Z,7.40
2019-03-21T21:23:10.995Z,5.53
2019-03-21T21:25:38.543Z,5.13
2019-03-21T21:28:06.151Z,4.30
2019-03-21T21:30:34.196Z,4.40
2019-03-21T21:33:01.583Z,7.93
2019-03-21T21:35:29.112Z,4.00
2019-03-21T21:37:57.287Z,4.00
2019-03-21T21:40:24.847Z,3.10
2019-03-21T21:42:53.904Z,3.47
2019-03-21T21:45:21.751Z,3.90
2019-03-21T21:47:49.823Z,3.00
2019-03-21T21:50:18.542Z,6.00
2019-03-21T21:52:47.195Z,4.43
2019-03-21T21:55:15.654Z,5.30
2019-03-21T21:57:43.909Z,4.97
2019-03-21T22:00:13.927Z,3.67
2019-03-21T22:02:42.011Z,8.30
2019-03-21T22:05:10.163Z,5.43
2019-03-21T22:07:38.391Z,7.50
2019-03-21T22:10:07.607Z,7.13
2019-03-21T22:12:35.139Z,6.00
2019-03-21T22:15:03.108Z,5.63
2019-03-21T22:17:31.424Z,7.70
2019-03-21T22:19:59.575Z,9.00
2019-03-21T22:22:27.108Z,30.73
2019-03-21T22:24:55.988Z,35.93
2019-03-21T22:27:24.514Z,18.17
2019-03-21T22:29:52.565Z,20.20
2019-03-21T22:32:20.712Z,9.20
2019-03-21T22:34:48.935Z,8.50
2019-03-21T22:37:17.180Z,11.13
2019-03-21T22:39:44.857Z,8.30
2019-03-21T22:42:14.183Z,17.53
2019-03-21T22:44:41.911Z,58.70
2019-03-21T22:47:09.584Z,101.80
2019-03-21T22:49:37.208Z,11.80
2019-03-21T22:52:05.160Z,3.50
2019-03-21T22:54:34.040Z,6.37
2019-03-21T22:57:01.681Z,3.60
2019-03-21T22:59:29.736Z,2.33
2019-03-21T23:01:58.236Z,4.93
2019-03-21T23:04:26.496Z,2.33
2019-03-21T23:06:54.123Z,4.20
2019-03-21T23:09:21.971Z,2.23
2019-03-21T23:11:49.629Z,4.47
2019-03-21T23:14:17.128Z,2.07
2019-03-21T23:16:44.828Z,2.70
2019-03-21T23:19:13.847Z,2.50
2019-03-21T23:21:41.764Z,2.67
2019-03-21T23:24:09.963Z,6.87
2019-03-21T23:26:38.023Z,2.30
2019-03-21T23:29:06.267Z,5.63
2019-03-21T23:31:33.980Z,3.50
2019-03-21T23:34:02.552Z,2.80
2019-03-21T23:36:30.595Z,3.00
2019-03-21T23:38:58.520Z,1.57
2019-03-21T23:41:26.531Z,2.17
2019-03-21T23:43:54.535Z,2.10
2019-03-21T23:46:22.112Z,1.97
2019-03-21T23:48:49.776Z,5.47
2019-03-21T23:51:17.273Z,2.13
2019-03-21T23:53:45.992Z,1.57
2019-03-21T23:56:13.403Z,4.97
2019-03-21T23:58:42.500Z,5.33
